Time;durP1;ratioP1;P1;durP2;ratioP2;P2;SDS_P1;SDS_P2;PMS_P1;PMS_P2;Temp;Humidity;BMP_temperature;BMP_pressure;BME280_temperature;BME280_humidity;BME280_pressure;Samples;Min_cycle;Max_cycle;Signal;HPM_P1;HPM_P2
2022/07/19 00:04:52;;;;;;;6.73;5.43;;;;;;;21.62;54.67;97005.75;10377746;28;20292;-24
2022/07/19 00:09:53;;;;;;;7.73;5.67;;;;;;;21.83;54.06;96992.88;10372663;28;20038;-23
2022/07/19 00:14:53;;;;;;;6.72;5.20;;;;;;;21.67;54.39;96999.81;10384079;28;20448;-24
2022/07/19 00:19:54;;;;;;;6.50;4.95;;;;;;;21.53;54.82;96995.63;10382768;28;20599;-23
2022/07/19 00:24:55;;;;;;;6.80;5.40;;;;;;;21.45;55.12;96988.06;10375523;28;20030;-22
2022/07/19 00:29:55;;;;;;;9.02;4.95;;;;;;;21.40;54.85;96982.16;10378438;28;20296;-24
2022/07/19 00:34:56;;;;;;;8.10;5.27;;;;;;;21.38;55.19;96978.78;10379732;28;20041;-23
2022/07/19 00:39:56;;;;;;;8.77;5.47;;;;;;;21.36;55.16;96972.84;10382238;28;20307;-26
2022/07/19 00:44:57;;;;;;;9.77;4.87;;;;;;;21.32;55.43;96962.69;10379187;28;20044;-22
2022/07/19 00:49:57;;;;;;;5.40;4.77;;;;;;;21.49;54.78;96971.06;10382001;28;20029;-23
2022/07/19 00:54:58;;;;;;;8.00;4.55;;;;;;;21.73;53.46;96966.63;10379421;28;20087;-23
2022/07/19 00:59:59;;;;;;;6.00;5.07;;;;;;;21.75;53.69;96970.03;10378021;28;20084;-23
2022/07/19 01:05:00;;;;;;;6.80;5.10;;;;;;;21.57;54.52;96966.75;10380320;28;20080;-24
2022/07/19 01:10:02;;;;;;;5.43;4.63;;;;;;;21.47;54.97;96963.41;10384091;28;20030;-23
2022/07/19 01:15:13;;;;;;;7.07;5.00;;;;;;;21.43;54.89;96966.84;10375881;28;20045;-23
2022/07/19 01:20:14;;;;;;;6.38;4.95;;;;;;;21.41;54.93;96968.56;10377115;28;20033;-22
2022/07/19 01:25:16;;;;;;;5.20;4.40;;;;;;;21.31;54.99;96946.56;10372839;28;20369;-24
2022/07/19 01:30:20;;;;;;;7.50;4.70;;;;;;;21.39;54.97;96969.44;10377031;28;20052;-24
2022/07/19 01:35:21;;;;;;;8.75;4.80;;;;;;;21.36;55.29;96960.13;10378485;28;20029;-22
2022/07/19 01:40:22;;;;;;;5.73;4.10;;;;;;;21.66;53.04;96962.44;10382509;28;20029;-23
2022/07/19 01:45:22;;;;;;;4.75;4.25;;;;;;;21.78;52.67;96954.69;10383172;28;20099;-24
2022/07/19 01:50:22;;;;;;;5.30;3.97;;;;;;;21.68;53.73;96964.97;10381823;28;20058;-24
2022/07/19 01:55:23;;;;;;;5.47;4.60;;;;;;;21.52;54.58;96950.63;10376155;28;20034;-23
2022/07/19 02:00:23;;;;;;;5.63;4.43;;;;;;;21.45;54.80;96942.22;10379273;28;20296;-23
2022/07/19 02:05:24;;;;;;;5.53;4.10;;;;;;;21.42;54.85;96954.13;10380429;28;20075;-23
2022/07/19 02:10:24;;;;;;;4.90;3.70;;;;;;;21.39;54.50;96944.81;10382856;28;20040;-23
2022/07/19 02:15:25;;;;;;;7.50;4.20;;;;;;;21.38;54.93;96934.66;10375141;28;20670;-23
2022/07/19 02:20:25;;;;;;;4.40;3.83;;;;;;;21.37;55.07;96931.25;10372758;28;20296;-23
2022/07/19 02:25:25;;;;;;;3.93;3.10;;;;;;;21.55;52.63;96925.97;10371400;28;20048;-23
2022/07/19 02:30:27;;;;;;;4.45;3.50;;;;;;;21.76;51.32;96923.28;10374398;28;20176;-23
2022/07/19 02:35:28;;;;;;;4.35;3.85;;;;;;;21.74;52.52;96924.97;10373026;28;20037;-24
2022/07/19 02:40:28;;;;;;;5.80;4.23;;;;;;;21.58;53.69;96925.97;10376899;28;20045;-24
2022/07/19 02:45:29;;;;;;;4.32;3.80;;;;;;;21.49;54.32;96922.66;10378270;28;20087;-23
2022/07/19 02:50:29;;;;;;;5.00;4.33;;;;;;;21.45;54.60;96918.44;10376220;28;20026;-24
2022/07/19 02:55:30;;;;;;;3.20;2.60;;;;;;;21.43;54.38;96920.16;10378146;28;20797;-24
2022/07/19 03:00:31;;;;;;;5.20;3.92;;;;;;;21.40;54.43;96915.91;10373342;28;20488;-24
2022/07/19 03:05:31;;;;;;;4.57;2.90;;;;;;;21.40;54.41;96908.28;10370284;28;20022;-24
2022/07/19 03:10:32;;;;;;;7.80;3.27;;;;;;;21.39;54.38;96909.13;10376679;28;20048;-23
2022/07/19 03:15:32;;;;;;;2.70;2.50;;;;;;;21.68;50.60;96912.31;10372811;28;20663;-23
2022/07/19 03:20:33;;;;;;;5.13;2.95;;;;;;;21.79;50.37;96905.41;10369943;28;20036;-23
2022/07/19 03:25:33;;;;;;;4.30;2.97;;;;;;;21.69;51.96;96910.59;10369532;28;20026;-24
2022/07/19 03:30:35;;;;;;;4.38;3.10;;;;;;;21.58;53.17;96909.81;10377589;28;20473;-24
2022/07/19 03:35:35;;;;;;;2.90;2.08;;;;;;;21.95;48.49;96912.03;10372293;28;20125;-24
2022/07/19 03:40:36;;;;;;;3.37;1.60;;;;;;;21.96;47.22;96910.31;10368087;28;20121;-24
2022/07/19 03:45:36;;;;;;;4.80;3.22;;;;;;;21.82;50.10;96915.56;10382596;28;20022;-22
2022/07/19 03:50:38;;;;;;;3.67;2.00;;;;;;;21.72;45.40;96924.16;10384253;28;20412;-24
2022/07/19 03:55:38;;;;;;;2.55;2.13;;;;;;;21.39;46.94;96914.22;10380321;28;20049;-24
2022/07/19 04:00:39;;;;;;;4.57;2.40;;;;;;;21.60;47.41;96929.34;10379954;28;20029;-24
2022/07/19 04:05:39;;;;;;;7.57;2.92;;;;;;;21.67;47.45;96930.16;10383998;28;20034;-23
2022/07/19 04:10:41;;;;;;;3.38;2.28;;;;;;;21.57;47.64;96931.91;10380094;28;20105;-22
2022/07/19 04:15:41;;;;;;;5.25;2.10;;;;;;;21.46;48.20;96928.63;10380640;28;20504;-23
2022/07/19 04:20:42;;;;;;;4.60;2.57;;;;;;;21.50;48.31;96939.63;10376452;28;20042;-22
2022/07/19 04:25:42;;;;;;;4.47;1.95;;;;;;;21.45;48.74;96933.72;10372689;28;20038;-24
2022/07/19 04:30:43;;;;;;;2.03;1.80;;;;;;;21.40;50.32;96941.38;10382315;28;20029;-24
2022/07/19 04:35:44;;;;;;;1.83;1.67;;;;;;;21.43;48.87;96950.72;10375941;28;20476;-24
2022/07/19 04:40:45;;;;;;;3.67;2.70;;;;;;;21.41;50.40;96943.06;10379010;28;20038;-22
2022/07/19 04:45:45;;;;;;;4.43;2.63;;;;;;;21.38;52.87;96945.66;10379061;28;20037;-23
2022/07/19 04:50:46;;;;;;;4.07;1.93;;;;;;;21.60;48.58;96933.59;10382196;28;20896;-23
2022/07/19 04:55:46;;;;;;;3.25;2.03;;;;;;;21.64;49.67;96943.72;10375481;28;20492;-24
2022/07/19 05:00:46;;;;;;;4.07;2.33;;;;;;;21.55;51.57;96931.06;10379758;28;20561;-23
2022/07/19 05:05:47;;;;;;;3.73;2.83;;;;;;;21.49;52.59;96926.03;10380760;28;20041;-23
2022/07/19 05:10:47;;;;;;;4.70;1.90;;;;;;;21.51;49.97;96924.34;10373205;28;20129;-24
2022/07/19 05:15:47;;;;;;;3.43;1.90;;;;;;;21.46;50.01;96926.06;10378685;28;20038;-23
2022/07/19 05:20:48;;;;;;;2.50;2.00;;;;;;;21.50;51.92;96922.66;10374274;28;20050;-23
2022/07/19 05:25:48;;;;;;;4.70;2.80;;;;;;;21.39;53.29;96919.31;10369109;28;20424;-23
2022/07/19 05:30:49;;;;;;;3.97;2.57;;;;;;;21.39;53.58;96929.50;10381177;28;20096;-23
2022/07/19 05:35:49;;;;;;;7.87;2.77;;;;;;;21.53;52.81;96922.63;10377093;28;20044;-22
2022/07/19 05:40:49;;;;;;;6.77;2.20;;;;;;;21.71;50.89;96927.56;10379950;28;20793;-23
2022/07/19 05:45:50;;;;;;;3.10;2.63;;;;;;;21.70;52.74;96928.44;10377171;28;20286;-23
2022/07/19 05:50:50;;;;;;;5.00;2.60;;;;;;;21.53;53.51;96927.72;10379701;28;20128;-23
2022/07/19 05:55:50;;;;;;;4.33;3.00;;;;;;;21.45;53.97;96932.03;10375223;28;20030;-22
2022/07/19 06:06:10;;;;;;;4.60;2.50;;;;;;;21.36;54.11;96924.47;10380477;28;20503;-23
2022/07/19 06:11:11;;;;;;;2.92;2.42;;;;;;;21.37;54.23;96915.94;10375495;28;20072;-24
2022/07/19 06:16:12;;;;;;;3.10;2.15;;;;;;;21.39;54.17;96923.59;10376779;28;20493;-23
2022/07/19 06:21:15;;;;;;;4.55;2.38;;;;;;;21.36;54.28;96913.41;10371037;28;20154;-23
2022/07/19 06:26:16;;;;;;;2.53;2.22;;;;;;;21.58;52.31;96903.03;10374102;28;20079;-23
2022/07/19 06:31:16;;;;;;;3.22;2.80;;;;;;;21.76;52.80;96918.19;10375065;28;20063;-22
2022/07/19 06:36:18;;;;;;;3.63;2.90;;;;;;;21.59;53.44;96917.47;10375570;28;20064;-22
2022/07/19 06:41:18;;;;;;;2.60;2.30;;;;;;;21.51;53.94;96915.84;10375038;28;20292;-23
2022/07/19 06:46:19;;;;;;;2.38;2.00;;;;;;;21.45;54.14;96914.19;10374062;28;20029;-24
2022/07/19 06:51:19;;;;;;;2.87;2.17;;;;;;;21.42;54.08;96908.28;10377623;28;20055;-24
2022/07/19 06:56:19;;;;;;;3.93;2.90;;;;;;;21.42;54.01;96904.03;10368925;28;20508;-24
2022/07/19 07:01:19;;;;;;;1.67;1.57;;;;;;;21.40;54.25;96905.72;10374866;28;20042;-23
2022/07/19 07:06:20;;;;;;;4.13;2.00;;;;;;;21.40;54.18;96905.72;10377146;28;20026;-25
2022/07/19 07:11:20;;;;;;;4.27;2.10;;;;;;;21.55;51.74;96914.97;10374760;28;20034;-23
2022/07/19 07:16:21;;;;;;;2.53;1.93;;;;;;;21.75;51.41;96913.94;10375645;28;20116;-23
2022/07/19 07:21:21;;;;;;;2.40;2.20;;;;;;;21.75;52.64;96905.44;10381565;28;20288;-24
2022/07/19 07:26:23;;;;;;;2.55;2.35;;;;;;;21.56;53.34;96894.53;10388632;28;20050;-22
2022/07/19 07:31:23;;;;;;;3.23;2.17;;;;;;;21.50;53.73;96901.41;10390802;28;20097;-24
2022/07/19 07:36:24;;;;;;;3.88;2.40;;;;;;;21.46;53.79;96898.03;10387543;28;20530;-24
2022/07/19 07:41:24;;;;;;;3.33;2.17;;;;;;;21.44;53.61;96892.13;10385473;28;20401;-23
2022/07/19 07:46:25;;;;;;;3.60;2.43;;;;;;;21.41;53.72;96892.13;10386640;28;20484;-23
2022/07/19 07:51:25;;;;;;;3.07;2.30;;;;;;;21.42;53.73;96883.66;10388378;28;20276;-23
2022/07/19 07:56:26;;;;;;;2.67;2.33;;;;;;;21.41;53.94;96881.94;10383730;28;20663;-23
2022/07/19 08:01:26;;;;;;;3.38;2.25;;;;;;;21.66;52.20;96877.50;10392066;28;20384;-23
2022/07/19 08:06:26;;;;;;;2.77;2.40;;;;;;;21.78;51.17;96875.69;10387010;28;20088;-22
2022/07/19 08:11:27;;;;;;;3.77;2.00;;;;;;;21.69;52.64;96868.13;10390814;28;20135;-23
2022/07/19 08:16:27;;;;;;;2.97;2.20;;;;;;;21.56;53.60;96856.31;10384453;28;20026;-24
2022/07/19 08:21:28;;;;;;;2.93;1.90;;;;;;;21.50;53.49;96856.41;10384562;28;20033;-23
2022/07/19 08:26:30;;;;;;;2.72;2.33;;;;;;;21.46;53.50;96853.91;10383466;28;20037;-22
2022/07/19 08:31:30;;;;;;;4.63;2.25;;;;;;;21.45;53.50;96853.06;10387148;28;20112;-24
2022/07/19 08:36:30;;;;;;;2.80;2.47;;;;;;;21.44;53.48;96851.38;10380334;28;20213;-23
2022/07/19 08:41:31;;;;;;;2.63;1.97;;;;;;;21.43;53.91;96856.47;10377795;28;20568;-23
2022/07/19 08:46:31;;;;;;;2.57;2.03;;;;;;;21.50;50.84;96851.31;10376578;28;20038;-24
2022/07/19 08:51:32;;;;;;;3.17;1.80;;;;;;;21.73;50.06;96849.38;10382854;28;20311;-23
2022/07/19 09:01:51;;;;;;;4.20;1.95;;;;;;;21.60;52.96;96847.81;10369899;28;20038;-24
2022/07/19 09:06:54;;;;;;;3.47;2.50;;;;;;;21.53;53.32;96847.88;10382440;28;20042;-22
2022/07/19 09:11:56;;;;;;;2.70;2.05;;;;;;;21.48;53.36;96837.72;10379982;28;20088;-23
2022/07/19 09:17:00;;;;;;;2.53;2.33;;;;;;;21.47;53.61;96830.94;10379556;28;20201;-23
2022/07/19 09:22:04;;;;;;;7.28;2.95;;;;;;;21.46;53.72;96842.00;10378102;28;20042;-23
2022/07/19 09:27:10;;;;;;;3.05;1.95;;;;;;;21.44;53.34;96835.22;10375208;28;20026;-23
2022/07/19 09:32:18;;;;;;;3.83;2.08;;;;;;;21.44;53.46;96831.00;10375969;28;20065;-24
2022/07/19 09:37:28;;;;;;;2.65;2.08;;;;;;;21.68;51.35;96828.22;10378433;28;20049;-23
2022/07/19 09:42:35;;;;;;;3.13;2.20;;;;;;;21.81;50.50;96827.22;10377598;28;20400;-23
2022/07/19 09:47:44;;;;;;;3.50;1.90;;;;;;;21.67;52.02;96829.09;10374185;28;20048;-22
2022/07/19 09:52:47;;;;;;;3.63;2.45;;;;;;;21.57;53.14;96827.44;10379961;28;20040;-24
2022/07/19 09:57:49;;;;;;;2.25;1.92;;;;;;;21.52;53.05;96813.91;10377426;28;20563;-23
2022/07/19 10:02:52;;;;;;;3.80;2.60;;;;;;;21.47;53.65;96802.94;10372342;28;20061;-25
2022/07/19 10:07:54;;;;;;;2.38;1.92;;;;;;;21.48;53.30;96807.16;10373947;28;20034;-24
2022/07/19 10:12:55;;;;;;;2.60;2.10;;;;;;;21.45;53.48;96797.00;10378917;28;20499;-23
2022/07/19 10:18:07;;;;;;;3.67;2.10;;;;;;;21.47;53.47;96800.38;10370971;28;20041;-24
2022/07/19 10:23:07;;;;;;;7.18;2.42;;;;;;;21.60;49.62;96790.91;10361739;28;20806;-24
2022/07/19 10:28:28;;;;;;;2.67;2.47;;;;;;;21.81;48.81;96794.06;10366863;28;20049;-23
2022/07/19 10:33:30;;;;;;;2.30;2.10;;;;;;;21.83;51.88;96794.06;10366810;28;20645;-24
2022/07/19 10:38:31;;;;;;;34.10;4.45;;;;;;;21.72;52.95;96778.88;10360525;28;20049;-23
2022/07/19 10:43:31;;;;;;;6.20;2.10;;;;;;;21.58;53.54;96778.19;10370385;28;20036;-24
2022/07/19 10:48:38;;;;;;;3.87;2.13;;;;;;;21.54;53.53;96780.75;10368631;28;20044;-24
2022/07/19 10:53:42;;;;;;;3.50;2.30;;;;;;;21.48;53.52;96776.59;10366330;28;20497;-23
2022/07/19 10:59:05;;;;;;;2.50;2.05;;;;;;;21.46;53.92;96767.28;10373703;28;20459;-23
2022/07/19 11:04:33;;;;;;;2.03;1.58;;;;;;;21.40;53.90;96758.00;10379210;28;20030;-23
2022/07/19 11:09:57;;;;;;;2.75;1.95;;;;;;;21.46;54.15;96755.38;10372741;28;20112;-22
2022/07/19 11:15:00;;;;;;;9.45;2.90;;;;;;;21.62;55.66;96748.41;10363387;28;20038;-24
2022/07/19 11:20:04;;;;;;;9.05;2.45;;;;;;;21.78;53.60;96744.84;10374774;28;20029;-23
2022/07/19 11:25:05;;;;;;;3.97;2.47;;;;;;;21.74;54.17;96748.31;10372086;28;20034;-23
2022/07/19 11:30:06;;;;;;;6.35;2.50;;;;;;;21.66;54.35;96730.53;10372609;28;20611;-23
2022/07/19 11:35:09;;;;;;;5.45;2.05;;;;;;;21.61;54.42;96742.47;10373255;28;20080;-24
2022/07/19 11:40:12;;;;;;;9.20;2.90;;;;;;;21.59;54.52;96744.22;10378020;28;20534;-28
2022/07/19 11:45:16;;;;;;;7.05;2.78;;;;;;;21.56;54.80;96735.75;10374791;28;20034;-24
2022/07/19 11:50:19;;;;;;;5.78;2.95;;;;;;;21.53;55.16;96734.09;10377832;28;20512;-23
2022/07/19 11:55:22;;;;;;;5.50;2.78;;;;;;;21.52;55.36;96729.84;10372583;28;20084;-23
2022/07/19 12:00:23;;;;;;;6.72;2.50;;;;;;;21.75;53.83;96727.06;10376067;28;20033;-22
2022/07/19 12:05:27;;;;;;;7.03;2.63;;;;;;;21.95;52.85;96725.94;10380104;28;20022;-24
2022/07/19 12:10:38;;;;;;;6.20;2.97;;;;;;;21.83;54.08;96721.00;10388813;28;20067;-23
2022/07/19 12:16:10;;;;;;;5.65;3.75;;;;;;;21.67;54.61;96716.97;10378293;28;20037;-23
2022/07/19 12:21:38;;;;;;;7.68;3.10;;;;;;;21.59;54.87;96700.03;10373254;28;20471;-23
2022/07/19 12:26:55;;;;;;;7.20;2.92;;;;;;;21.59;55.03;96712.78;10369174;28;20045;-24
2022/07/19 12:32:01;;;;;;;3.58;2.30;;;;;;;21.55;54.77;96685.66;10379846;28;20033;-22
2022/07/19 12:37:17;;;;;;;5.13;2.70;;;;;;;21.61;55.04;96708.50;10378890;28;20065;-23
2022/07/19 12:42:18;;;;;;;3.80;2.70;;;;;;;21.58;54.96;96701.75;10378021;28;20037;-24
2022/07/19 12:47:18;;;;;;;3.60;2.30;;;;;;;21.76;54.07;96693.91;10382100;28;20056;-23
2022/07/19 12:52:18;;;;;;;2.73;2.17;;;;;;;22.00;53.26;96690.16;10382480;28;20041;-23
2022/07/19 12:57:19;;;;;;;4.20;2.40;;;;;;;21.93;53.63;96674.13;10378216;28;21191;-23
2022/07/19 13:02:19;;;;;;;4.53;2.33;;;;;;;21.81;54.11;96674.28;10389013;28;20072;-23
2022/07/19 13:07:20;;;;;;;4.77;2.40;;;;;;;21.72;54.29;96669.31;10377403;28;20507;-21
2022/07/19 13:12:20;;;;;;;4.70;2.72;;;;;;;21.68;54.70;96672.78;10381031;28;20036;-24
2022/07/19 13:17:21;;;;;;;8.20;2.92;;;;;;;21.67;55.97;96668.53;10377560;28;20546;-24
2022/07/19 13:22:21;;;;;;;3.78;2.28;;;;;;;21.62;56.03;96666.88;10372740;28;20038;-23
2022/07/19 13:27:22;;;;;;;4.85;2.25;;;;;;;21.64;55.85;96655.78;10374190;28;20022;-23
2022/07/19 13:32:22;;;;;;;6.93;2.33;;;;;;;21.65;55.83;96649.88;10375907;28;20096;-24
2022/07/19 13:37:22;;;;;;;3.50;2.17;;;;;;;21.91;54.40;96644.41;10369549;28;20033;-23
2022/07/19 13:42:23;;;;;;;6.97;2.30;;;;;;;22.01;53.99;96639.16;10376963;28;20308;-23
2022/07/19 13:47:23;;;;;;;3.97;2.13;;;;;;;21.88;54.39;96640.19;10376683;28;20403;-24
2022/07/19 13:52:24;;;;;;;3.33;1.93;;;;;;;21.80;55.20;96631.81;10370763;28;20034;-23
2022/07/19 13:57:24;;;;;;;3.17;1.88;;;;;;;21.75;55.37;96627.66;10358896;28;20295;-23
2022/07/19 14:02:25;;;;;;;5.17;2.40;;;;;;;21.72;55.58;96623.44;10373174;28;20037;-22
2022/07/19 14:07:25;;;;;;;2.57;2.33;;;;;;;21.69;55.49;96613.31;10373065;28;20025;-24
2022/07/19 14:12:25;;;;;;;3.60;2.63;;;;;;;21.69;55.66;96618.41;10375865;28;20030;-23
2022/07/19 14:17:26;;;;;;;4.10;2.03;;;;;;;21.67;55.69;96616.72;10360747;28;20026;-23
2022/07/19 14:22:26;;;;;;;2.80;2.22;;;;;;;21.81;54.76;96602.91;10370212;28;20293;-24
2022/07/19 14:27:27;;;;;;;5.57;2.08;;;;;;;22.04;54.10;96608.50;10379024;28;20101;-25
2022/07/19 14:32:27;;;;;;;3.13;2.00;;;;;;;22.01;54.27;96606.03;10369252;28;20022;-26
2022/07/19 14:37:27;;;;;;;2.60;2.00;;;;;;;21.87;54.51;96604.53;10372844;28;20121;-24
2022/07/19 14:42:31;;;;;;;4.83;2.07;;;;;;;21.80;55.21;96600.41;10368503;28;20476;-24
2022/07/19 14:47:33;;;;;;;5.22;2.17;;;;;;;21.74;55.42;96592.84;10373482;28;20279;-24
2022/07/19 14:52:34;;;;;;;4.05;2.30;;;;;;;21.72;55.44;96595.41;10366024;28;20037;-24
2022/07/19 14:57:34;;;;;;;3.85;2.67;;;;;;;21.72;55.55;96582.66;10367720;28;20026;-23
2022/07/19 15:02:35;;;;;;;4.78;2.50;;;;;;;21.70;55.60;96592.03;10368721;28;20030;-24
2022/07/19 15:07:35;;;;;;;2.80;2.03;;;;;;;21.70;55.63;96581.00;10366066;28;20046;-24
2022/07/19 15:12:36;;;;;;;4.25;1.70;;;;;;;21.90;54.96;96577.28;10367248;28;20195;-24
2022/07/19 15:17:37;;;;;;;3.27;2.20;;;;;;;22.05;54.42;96577.03;10368224;28;20034;-24
2022/07/19 15:22:37;;;;;;;3.58;2.00;;;;;;;21.97;54.82;96578.88;10365473;28;20358;-24
2022/07/19 15:27:39;;;;;;;5.38;1.90;;;;;;;21.85;55.11;96573.13;10371022;28;20026;-22
2022/07/19 15:32:40;;;;;;;6.75;3.53;;;;;;;21.75;55.70;96572.44;10369853;28;20091;-24
2022/07/19 15:37:41;;;;;;;8.27;2.83;;;;;;;21.78;57.66;96567.28;10374570;28;20037;-24
2022/07/19 15:42:47;;;;;;;12.73;2.80;;;;;;;21.69;58.10;96575.06;10376763;28;20033;-24
2022/07/19 15:47:48;;;;;;;10.23;2.72;;;;;;;21.81;58.25;96571.50;10381827;28;20445;-25
2022/07/19 15:52:49;;;;;;;9.02;2.88;;;;;;;21.83;57.42;96562.97;10382941;28;20042;-24
2022/07/19 15:57:50;;;;;;;10.80;3.38;;;;;;;21.92;56.56;96567.94;10379670;28;20041;-23
2022/07/19 16:02:50;;;;;;;5.07;2.95;;;;;;;22.18;55.58;96573.44;10380840;28;20037;-24
2022/07/19 16:07:51;;;;;;;3.10;1.97;;;;;;;22.12;55.56;96558.22;10378524;28;20045;-23
2022/07/19 16:12:51;;;;;;;6.40;2.22;;;;;;;21.96;56.23;96556.81;10381890;28;20284;-24
2022/07/19 16:17:52;;;;;;;3.70;2.33;;;;;;;21.90;56.03;96559.44;10379150;28;20424;-24
2022/07/19 16:22:53;;;;;;;4.43;2.10;;;;;;;21.81;56.24;96544.28;10378476;28;20291;-22
2022/07/19 16:27:54;;;;;;;5.85;3.67;;;;;;;21.85;55.59;96548.50;10379590;28;20317;-24
2022/07/19 16:32:54;;;;;;;6.38;2.33;;;;;;;21.85;55.90;96551.03;10380698;28;20116;-23
2022/07/19 16:37:54;;;;;;;6.43;2.50;;;;;;;21.84;55.84;96549.38;10378386;28;20037;-24
2022/07/19 16:42:55;;;;;;;3.33;2.05;;;;;;;21.83;56.07;96545.13;10377971;28;20030;-23
2022/07/19 16:47:55;;;;;;;4.57;2.17;;;;;;;22.11;54.51;96546.34;10381673;28;20036;-25
2022/07/19 16:52:56;;;;;;;2.70;1.90;;;;;;;22.19;54.47;96536.88;10379925;28;20034;-24
2022/07/19 16:57:56;;;;;;;2.97;2.00;;;;;;;22.05;55.01;96530.31;10372676;28;20033;-24
2022/07/19 17:02:56;;;;;;;4.90;2.00;;;;;;;21.97;55.43;96543.19;10378685;28;20034;-23
2022/07/19 17:07:57;;;;;;;3.53;2.17;;;;;;;21.85;55.42;96533.19;10361432;28;20037;-24
2022/07/19 17:12:57;;;;;;;3.78;2.00;;;;;;;21.90;55.33;96533.94;10361982;28;20291;-24
2022/07/19 17:17:58;;;;;;;3.43;2.53;;;;;;;21.89;55.60;96534.00;10368856;28;20160;-25
2022/07/19 17:22:58;;;;;;;5.10;2.25;;;;;;;21.79;55.50;96533.28;10363437;28;20033;-23
2022/07/19 17:27:59;;;;;;;2.92;2.33;;;;;;;21.66;55.56;96516.50;10369387;28;20400;-23
2022/07/19 17:32:59;;;;;;;3.73;1.80;;;;;;;22.03;54.82;96553.28;10368486;28;20060;-25
2022/07/19 17:38:02;;;;;;;4.43;2.33;;;;;;;22.22;54.18;96554.66;10376871;28;20386;-24
2022/07/19 17:43:03;;;;;;;4.68;1.95;;;;;;;22.17;54.72;96553.06;10360010;28;20053;-25
2022/07/19 17:48:04;;;;;;;3.95;1.98;;;;;;;22.01;55.04;96555.03;10373889;28;20026;-24
2022/07/19 17:53:04;;;;;;;5.82;2.10;;;;;;;21.95;55.70;96555.13;10380741;28;20107;-24
2022/07/19 17:58:05;;;;;;;5.50;2.30;;;;;;;21.88;55.70;96561.19;10375323;28;20091;-24
2022/07/19 18:03:05;;;;;;;6.68;3.90;;;;;;;21.85;56.05;96556.16;10365940;28;20334;-23
2022/07/19 18:08:06;;;;;;;10.80;4.10;;;;;;;21.84;55.96;96556.16;10369044;28;20034;-23
2022/07/19 18:13:07;;;;;;;7.60;3.50;;;;;;;21.87;56.99;96549.31;10369454;28;20088;-25
2022/07/19 18:18:07;;;;;;;12.05;3.83;;;;;;;21.93;57.04;96550.91;10367947;28;20055;-23
2022/07/19 18:23:08;;;;;;;5.93;2.87;;;;;;;22.19;56.00;96547.06;10370293;28;20036;-23
2022/07/19 18:28:08;;;;;;;7.13;2.60;;;;;;;22.27;55.41;96547.78;10364675;28;20112;-25
2022/07/19 18:33:08;;;;;;;5.63;2.30;;;;;;;22.12;55.45;96547.19;10372585;28;20064;-24
2022/07/19 18:38:09;;;;;;;7.97;2.90;;;;;;;22.03;56.30;96548.19;10363453;28;20041;-24
2022/07/19 18:43:09;;;;;;;3.10;2.55;;;;;;;22.00;56.38;96540.59;10368308;28;20197;-23
2022/07/19 18:48:10;;;;;;;10.18;2.47;;;;;;;21.99;56.21;96549.09;10367816;28;20507;-25
2022/07/19 18:53:10;;;;;;;6.18;2.83;;;;;;;22.14;56.05;96538.63;10359838;28;20417;-23
2022/07/19 18:58:11;;;;;;;4.50;2.20;;;;;;;22.32;55.38;96540.03;10358373;28;20065;-24
2022/07/19 19:03:11;;;;;;;5.73;2.10;;;;;;;22.21;55.48;96542.78;10358453;28;20460;-25
2022/07/19 19:08:12;;;;;;;4.78;2.28;;;;;;;22.09;55.69;96543.00;10360320;28;20372;-26
2022/07/19 19:13:12;;;;;;;8.37;3.10;;;;;;;22.04;55.89;96543.91;10365092;28;20436;-26
2022/07/19 19:18:13;;;;;;;4.03;2.00;;;;;;;22.00;56.03;96548.25;10367937;28;20289;-24
2022/07/19 19:23:13;;;;;;;4.33;2.50;;;;;;;21.98;56.25;96555.06;10370098;28;20033;-25
2022/07/19 19:28:13;;;;;;;10.33;2.63;;;;;;;22.03;56.43;96562.63;10369758;28;20477;-24
2022/07/19 19:33:14;;;;;;;3.80;2.30;;;;;;;22.25;55.45;96563.97;10369015;28;20038;-24
2022/07/19 19:38:15;;;;;;;2.30;1.83;;;;;;;22.30;55.15;96573.22;10365072;28;20033;-23
2022/07/19 19:43:16;;;;;;;2.80;1.80;;;;;;;22.15;55.59;96583.66;10367477;28;20037;-23
2022/07/19 19:48:16;;;;;;;21.55;2.75;;;;;;;22.09;55.81;96593.13;10367913;28;20292;-23
2022/07/19 19:53:16;;;;;;;6.68;2.50;;;;;;;22.07;55.96;96600.81;10362704;28;20045;-24
2022/07/19 19:58:17;;;;;;;10.33;2.50;;;;;;;22.04;56.40;96608.50;10368809;28;20044;-23
2022/07/19 20:03:17;;;;;;;4.30;2.07;;;;;;;22.00;56.80;96622.19;10364725;28;20113;-24
2022/07/19 20:08:18;;;;;;;6.33;3.13;;;;;;;22.06;56.65;96611.88;10373428;28;20037;-24
2022/07/19 20:13:19;;;;;;;6.10;2.35;;;;;;;22.25;56.13;96615.84;10377016;28;20041;-24
2022/07/19 20:18:20;;;;;;;3.67;2.28;;;;;;;22.38;55.46;96629.19;10378855;28;20041;-23
2022/07/19 20:23:20;;;;;;;2.10;1.90;;;;;;;22.23;55.70;96615.00;10373161;28;20408;-24
2022/07/19 20:28:21;;;;;;;3.83;1.93;;;;;;;22.25;56.25;96620.94;10383158;28;20041;-24
2022/07/19 20:33:21;;;;;;;3.43;1.70;;;;;;;22.18;55.87;96627.00;10380005;28;20057;-25
2022/07/19 20:38:21;;;;;;;3.43;2.00;;;;;;;22.17;55.99;96627.00;10370260;28;20034;-24
2022/07/19 20:43:23;;;;;;;4.43;1.80;;;;;;;22.15;56.01;96629.56;10376178;28;20045;-24
2022/07/19 20:48:24;;;;;;;2.70;1.90;;;;;;;22.14;56.07;96633.00;10382346;28;20296;-24
2022/07/19 20:53:24;;;;;;;2.90;2.42;;;;;;;22.20;56.35;96632.91;10377337;28;20037;-25
2022/07/19 20:58:25;;;;;;;3.03;2.22;;;;;;;22.43;55.81;96640.22;10379885;28;20104;-24
2022/07/19 21:03:25;;;;;;;1.77;1.67;;;;;;;22.31;55.49;96638.66;10381374;28;20033;-25
2022/07/19 21:08:26;;;;;;;2.33;1.60;;;;;;;22.11;55.71;96620.31;10378671;28;20055;-24
2022/07/19 21:13:26;;;;;;;2.60;1.93;;;;;;;22.12;55.76;96629.63;10381989;28;20053;-24
2022/07/19 21:18:27;;;;;;;4.07;1.90;;;;;;;22.09;56.03;96624.59;10379145;28;20790;-24
2022/07/19 21:23:27;;;;;;;1.60;1.40;;;;;;;22.09;56.09;96619.50;10371958;28;20033;-24
2022/07/19 21:28:27;;;;;;;2.17;1.80;;;;;;;22.07;56.04;96616.09;10371519;28;20034;-26
2022/07/19 21:33:29;;;;;;;3.10;1.83;;;;;;;22.07;56.04;96620.38;10377498;28;20128;-25
2022/07/19 21:38:29;;;;;;;3.03;2.10;;;;;;;22.20;56.51;96629.50;10379195;28;20492;-25
2022/07/19 21:43:29;;;;;;;2.77;2.47;;;;;;;22.35;55.89;96621.59;10374924;28;20022;-26
2022/07/19 21:48:30;;;;;;;3.00;1.50;;;;;;;22.26;55.49;96632.81;10380422;28;20077;-26
2022/07/19 21:53:30;;;;;;;4.23;1.60;;;;;;;22.15;55.81;96628.75;10380678;28;20048;-24
2022/07/19 21:58:31;;;;;;;4.65;2.05;;;;;;;22.10;55.90;96631.38;10378716;28;20180;-25
2022/07/19 22:03:31;;;;;;;3.07;1.70;;;;;;;22.07;56.19;96641.59;10374584;28;20028;-25
2022/07/19 22:08:33;;;;;;;2.47;2.10;;;;;;;22.04;56.24;96641.66;10375454;28;20287;-24
2022/07/19 22:13:34;;;;;;;2.97;1.40;;;;;;;22.03;56.17;96645.06;10378824;28;20136;-24
2022/07/19 22:18:34;;;;;;;1.50;1.40;;;;;;;22.03;56.12;96644.22;10367682;28;20030;-24
2022/07/19 22:23:35;;;;;;;1.90;1.60;;;;;;;22.18;55.93;96644.84;10375796;28;20535;-23
2022/07/19 22:28:36;;;;;;;2.10;1.90;;;;;;;22.40;55.41;96648.72;10375211;28;20044;-25
2022/07/19 22:33:38;;;;;;;2.20;1.52;;;;;;;22.24;55.35;96639.63;10377188;28;20320;-24
2022/07/19 22:38:39;;;;;;;1.95;1.58;;;;;;;22.13;55.74;96646.63;10372144;28;20031;-25
2022/07/19 22:43:39;;;;;;;1.60;1.27;;;;;;;22.09;55.96;96654.34;10373723;28;20029;-24
2022/07/19 22:48:40;;;;;;;2.10;1.90;;;;;;;22.07;56.11;96651.81;10377249;28;20484;-24
2022/07/19 22:53:40;;;;;;;3.47;1.70;;;;;;;22.04;56.03;96645.91;10374476;28;20424;-24
2022/07/19 22:58:40;;;;;;;3.93;1.40;;;;;;;22.02;56.14;96643.41;10374194;28;20699;-24
2022/07/19 23:03:41;;;;;;;2.07;1.53;;;;;;;22.03;56.06;96642.53;10378657;28;20110;-25
2022/07/19 23:08:41;;;;;;;2.33;1.50;;;;;;;22.21;55.18;96632.03;10373469;28;20636;-23
2022/07/19 23:13:41;;;;;;;3.17;1.73;;;;;;;22.41;54.87;96647.06;10377045;28;20408;-25
2022/07/19 23:18:42;;;;;;;1.93;1.40;;;;;;;22.23;55.29;96643.03;10371425;28;20116;-24
2022/07/19 23:23:42;;;;;;;2.27;1.70;;;;;;;22.09;55.62;96639.91;10361377;28;20031;-25
2022/07/19 23:28:43;;;;;;;5.80;1.50;;;;;;;22.06;55.81;96645.03;10365111;28;20161;-23
2022/07/19 23:33:43;;;;;;;1.75;1.58;;;;;;;22.04;55.93;96646.75;10369824;28;20836;-25